createdAt,value
2022-10-24T00:00:05.170Z,0.00
2022-10-24T00:01:05.030Z,0.00
2022-10-24T00:02:05.070Z,0.00
2022-10-24T00:03:05.124Z,0.00
2022-10-24T00:05:04.993Z,0.00
2022-10-24T00:06:04.993Z,0.00
2022-10-24T00:07:04.973Z,0.00
2022-10-24T00:08:04.994Z,0.00
2022-10-24T00:09:04.942Z,0.00
2022-10-24T00:10:04.932Z,0.00
2022-10-24T00:11:04.928Z,0.00
2022-10-24T00:12:04.911Z,0.00
2022-10-24T00:13:04.896Z,0.00
2022-10-24T00:14:04.903Z,0.00
2022-10-24T00:15:04.872Z,0.00
2022-10-24T00:16:04.868Z,0.00
2022-10-24T00:17:04.854Z,0.00
2022-10-24T00:18:04.846Z,0.00
2022-10-24T00:19:04.857Z,0.00
2022-10-24T00:20:04.823Z,0.00
2022-10-24T00:21:04.815Z,0.00
2022-10-24T00:22:04.806Z,0.00
2022-10-24T00:23:04.775Z,0.00
2022-10-24T00:24:04.802Z,0.00
2022-10-24T00:25:04.787Z,0.00
2022-10-24T00:26:04.746Z,0.00
2022-10-24T00:27:04.805Z,0.00
2022-10-24T00:28:04.732Z,0.00
2022-10-24T00:29:04.716Z,0.00
2022-10-24T00:30:04.696Z,0.00
2022-10-24T00:31:04.752Z,0.00
2022-10-24T00:32:04.697Z,0.00
2022-10-24T00:33:04.690Z,0.00
2022-10-24T00:34:04.977Z,0.00
2022-10-24T00:35:04.647Z,0.00
2022-10-24T00:36:04.636Z,0.00
2022-10-24T00:37:04.647Z,0.00
2022-10-24T00:38:04.654Z,0.00
2022-10-24T00:39:04.610Z,0.00
2022-10-24T00:40:04.624Z,0.00
2022-10-24T00:41:04.572Z,0.00
2022-10-24T00:42:04.618Z,0.00
2022-10-24T00:43:04.559Z,0.00
2022-10-24T00:44:04.554Z,0.00
2022-10-24T00:45:04.538Z,0.00
2022-10-24T00:46:04.531Z,0.00
2022-10-24T00:47:04.524Z,0.00
2022-10-24T00:48:04.522Z,0.00
2022-10-24T00:49:04.492Z,0.00
2022-10-24T00:50:04.490Z,0.00
2022-10-24T00:51:04.466Z,0.00
2022-10-24T00:52:04.463Z,0.00
2022-10-24T00:53:04.443Z,0.00
2022-10-24T00:54:04.480Z,0.00
2022-10-24T00:55:04.444Z,0.00
2022-10-24T00:56:04.406Z,0.00
2022-10-24T00:57:04.400Z,0.00
2022-10-24T00:58:04.391Z,0.00
2022-10-24T00:59:04.381Z,0.00
2022-10-24T01:00:04.391Z,0.00
2022-10-24T01:01:04.402Z,0.00
2022-10-24T01:02:04.412Z,0.00
2022-10-24T01:03:04.330Z,0.00
2022-10-24T01:04:05.034Z,0.00
2022-10-24T01:05:04.363Z,0.00
2022-10-24T01:06:04.308Z,0.00
2022-10-24T01:07:04.291Z,0.00
2022-10-24T01:08:04.264Z,0.00
2022-10-24T01:09:04.264Z,0.00
2022-10-24T01:10:04.254Z,0.00
2022-10-24T01:11:04.273Z,0.00
2022-10-24T01:12:04.249Z,0.00
2022-10-24T01:13:04.214Z,0.00
2022-10-24T01:14:04.205Z,0.00
2022-10-24T01:15:04.205Z,0.00
2022-10-24T01:16:04.193Z,0.00
2022-10-24T01:17:04.199Z,0.00
2022-10-24T01:18:04.163Z,0.00
2022-10-24T01:19:04.170Z,0.00
2022-10-24T01:20:04.139Z,0.00
2022-10-24T01:21:04.132Z,0.00
2022-10-24T01:22:04.106Z,0.00
2022-10-24T01:23:04.170Z,0.00
2022-10-24T01:24:04.106Z,0.00
2022-10-24T01:25:04.077Z,0.00
2022-10-24T01:26:04.086Z,0.00
2022-10-24T01:27:04.117Z,0.00
2022-10-24T01:28:04.077Z,0.00
2022-10-24T01:29:04.081Z,0.00
2022-10-24T01:30:04.040Z,0.00
2022-10-24T01:31:04.009Z,0.00
2022-10-24T01:32:04.028Z,0.00
2022-10-24T01:33:04.019Z,0.00
2022-10-24T01:34:04.026Z,0.00
2022-10-24T01:35:03.986Z,0.00
2022-10-24T01:36:03.966Z,0.00
2022-10-24T01:37:03.958Z,0.00
2022-10-24T01:38:03.953Z,0.00
2022-10-24T01:39:03.923Z,0.00
2022-10-24T01:40:03.922Z,0.00
2022-10-24T01:41:03.900Z,0.00
2022-10-24T01:42:03.922Z,0.00
2022-10-24T01:43:03.870Z,0.00
2022-10-24T01:44:03.868Z,0.00
2022-10-24T01:45:03.881Z,0.00
2022-10-24T01:46:03.835Z,0.00
2022-10-24T01:47:03.823Z,0.00
2022-10-24T01:48:03.811Z,0.00
2022-10-24T01:49:03.802Z,0.00
2022-10-24T01:50:03.797Z,0.00
2022-10-24T01:51:03.804Z,0.00
2022-10-24T01:52:03.850Z,0.00
2022-10-24T01:53:03.762Z,0.00
2022-10-24T01:54:03.743Z,0.00
2022-10-24T01:55:03.750Z,0.00
2022-10-24T01:56:03.725Z,0.00
2022-10-24T01:57:03.745Z,0.00
2022-10-24T01:58:03.712Z,0.00
2022-10-24T01:59:03.693Z,0.00
2022-10-24T02:00:03.675Z,0.00
2022-10-24T02:01:03.734Z,0.00
2022-10-24T02:02:03.661Z,0.00
2022-10-24T02:03:03.666Z,0.00
2022-10-24T02:04:03.640Z,0.00
2022-10-24T02:05:03.624Z,0.00
2022-10-24T02:06:03.605Z,0.00
2022-10-24T02:07:03.611Z,0.00
2022-10-24T02:08:03.585Z,0.00
2022-10-24T02:10:03.563Z,0.00
2022-10-24T02:11:03.555Z,0.00
2022-10-24T02:12:03.545Z,0.00
2022-10-24T02:13:03.540Z,0.00
2022-10-24T02:14:03.567Z,0.00
2022-10-24T02:15:03.566Z,0.00
2022-10-24T02:16:03.496Z,0.00
2022-10-24T02:17:03.488Z,0.00
2022-10-24T02:18:03.487Z,0.00
2022-10-24T02:19:03.460Z,0.00
2022-10-24T02:20:03.519Z,0.00
2022-10-24T02:21:03.541Z,0.00
2022-10-24T02:22:03.565Z,0.00
2022-10-24T02:23:03.604Z,0.00
2022-10-24T02:24:03.409Z,0.00
2022-10-24T02:25:03.389Z,0.00
2022-10-24T02:26:03.416Z,0.00
2022-10-24T02:27:03.369Z,0.00
2022-10-24T02:28:03.367Z,0.00
2022-10-24T02:29:03.348Z,0.00
2022-10-24T02:30:03.359Z,0.00
2022-10-24T02:31:03.373Z,0.00
2022-10-24T02:32:03.322Z,0.00
2022-10-24T02:33:03.302Z,0.00
2022-10-24T02:34:03.327Z,0.00
2022-10-24T02:35:03.290Z,0.00
2022-10-24T02:36:03.270Z,0.00
2022-10-24T02:37:03.300Z,0.00
2022-10-24T02:38:03.265Z,0.00
2022-10-24T02:39:03.255Z,0.00
2022-10-24T02:40:03.334Z,0.00
2022-10-24T02:41:03.213Z,0.00
2022-10-24T02:42:03.231Z,0.00
2022-10-24T02:43:03.221Z,0.00
2022-10-24T02:44:03.202Z,0.00
2022-10-24T02:45:03.173Z,0.00
2022-10-24T02:46:03.161Z,0.00
2022-10-24T02:47:03.143Z,0.00
2022-10-24T02:48:03.186Z,0.00
2022-10-24T02:49:03.123Z,0.00
2022-10-24T02:50:03.130Z,0.00
2022-10-24T02:51:03.112Z,0.00
2022-10-24T02:52:03.085Z,0.00
2022-10-24T02:53:03.076Z,0.00
2022-10-24T02:54:03.103Z,0.00
2022-10-24T02:55:03.078Z,0.00
2022-10-24T02:56:03.064Z,0.00
2022-10-24T02:57:03.058Z,0.00
2022-10-24T02:58:03.024Z,0.00
2022-10-24T02:59:03.097Z,0.00
2022-10-24T03:00:03.294Z,0.00
2022-10-24T03:01:03.088Z,0.00
2022-10-24T03:02:03.001Z,0.00
2022-10-24T03:03:02.965Z,0.00
2022-10-24T03:04:02.961Z,0.00
2022-10-24T03:05:02.956Z,0.00
2022-10-24T03:06:02.996Z,0.00
2022-10-24T03:07:02.938Z,0.00
2022-10-24T03:08:02.931Z,0.00
2022-10-24T03:09:02.917Z,0.00
2022-10-24T03:10:02.909Z,0.00
2022-10-24T03:11:02.992Z,0.00
2022-10-24T03:12:02.883Z,0.00
2022-10-24T03:13:02.858Z,0.00
2022-10-24T03:14:02.848Z,0.00
2022-10-24T03:15:02.828Z,0.00
2022-10-24T03:16:02.822Z,0.00
2022-10-24T03:17:02.863Z,0.00
2022-10-24T03:18:02.803Z,0.00
2022-10-24T03:19:02.798Z,0.00
2022-10-24T03:20:02.791Z,0.00
2022-10-24T03:21:02.789Z,0.00
2022-10-24T03:22:02.770Z,0.00
2022-10-24T03:23:02.799Z,0.00
2022-10-24T03:24:02.854Z,0.00
2022-10-24T03:25:02.733Z,0.00
2022-10-24T03:26:02.701Z,0.00
2022-10-24T03:27:02.711Z,0.00
2022-10-24T03:28:02.697Z,0.00
2022-10-24T03:29:02.743Z,0.00
2022-10-24T03:30:02.665Z,0.00
2022-10-24T03:31:02.716Z,0.00
2022-10-24T03:32:02.698Z,0.00
2022-10-24T03:33:02.632Z,0.00
2022-10-24T03:34:02.620Z,0.00
2022-10-24T03:35:02.626Z,0.00
2022-10-24T03:36:02.602Z,0.00
2022-10-24T03:37:02.596Z,0.00
2022-10-24T03:38:02.593Z,0.00
2022-10-24T03:39:02.583Z,0.00
2022-10-24T03:40:02.554Z,0.00
2022-10-24T03:41:02.564Z,0.00
2022-10-24T03:42:02.542Z,0.00
2022-10-24T03:43:03.243Z,0.00
2022-10-24T03:44:02.533Z,0.00
2022-10-24T03:45:02.501Z,0.00
2022-10-24T03:46:02.518Z,0.00
2022-10-24T03:47:02.492Z,0.00
2022-10-24T03:48:02.506Z,0.00
2022-10-24T03:50:02.456Z,0.00
2022-10-24T03:51:02.469Z,0.00
2022-10-24T03:52:02.457Z,0.00
2022-10-24T03:53:02.398Z,0.00
2022-10-24T03:54:02.396Z,0.00
2022-10-24T03:55:02.376Z,0.00
2022-10-24T03:56:02.372Z,0.00
2022-10-24T03:57:02.351Z,0.00
2022-10-24T03:58:02.388Z,0.00
2022-10-24T03:59:02.329Z,0.00
2022-10-24T04:00:02.317Z,0.00
2022-10-24T04:01:02.415Z,0.00
2022-10-24T04:02:02.340Z,0.00
2022-10-24T04:03:02.289Z,0.00
2022-10-24T04:04:02.298Z,0.00
2022-10-24T04:05:02.333Z,0.00
2022-10-24T04:06:02.249Z,0.00
2022-10-24T04:07:02.251Z,0.00
2022-10-24T04:08:02.251Z,0.00
2022-10-24T04:09:02.220Z,0.00
2022-10-24T04:10:02.328Z,0.00
2022-10-24T04:11:02.200Z,0.00
2022-10-24T04:12:02.191Z,0.00
2022-10-24T04:13:02.190Z,0.00
2022-10-24T04:15:04.776Z,0.00
2022-10-24T04:16:02.142Z,0.00
2022-10-24T04:17:02.130Z,0.00
2022-10-24T04:18:02.126Z,0.00
2022-10-24T04:19:02.112Z,0.00
2022-10-24T04:20:02.110Z,0.00
2022-10-24T04:21:02.151Z,0.00
2022-10-24T04:22:02.081Z,0.00
2022-10-24T04:23:04.349Z,0.00
2022-10-24T04:24:02.055Z,0.00
2022-10-24T04:25:02.078Z,0.00
2022-10-24T04:26:02.032Z,0.00
2022-10-24T04:27:02.084Z,0.00
2022-10-24T04:28:02.003Z,0.00
2022-10-24T04:29:01.995Z,0.00
2022-10-24T04:30:01.984Z,0.00
2022-10-24T04:31:01.978Z,0.00
2022-10-24T04:32:01.952Z,0.00
2022-10-24T04:33:01.987Z,0.00
2022-10-24T04:34:01.933Z,0.00
2022-10-24T04:35:01.924Z,0.00
2022-10-24T04:36:01.913Z,0.00
2022-10-24T04:37:01.919Z,0.00
2022-10-24T04:38:01.885Z,0.00
2022-10-24T04:39:01.934Z,0.00
2022-10-24T04:40:01.864Z,0.00
2022-10-24T04:41:01.855Z,0.00
2022-10-24T04:42:01.856Z,0.00
2022-10-24T04:43:01.851Z,0.00
2022-10-24T04:44:01.815Z,0.00
2022-10-24T04:45:01.864Z,0.00
2022-10-24T04:46:01.809Z,0.00
2022-10-24T04:47:01.815Z,0.00
2022-10-24T04:48:01.786Z,0.00
2022-10-24T04:49:01.789Z,0.00
2022-10-24T04:50:01.749Z,0.00
2022-10-24T04:51:01.769Z,0.00
2022-10-24T04:52:01.728Z,0.00
2022-10-24T04:53:01.748Z,0.00
2022-10-24T04:54:01.697Z,0.00
2022-10-24T04:55:01.691Z,0.00
2022-10-24T04:56:01.698Z,0.00
2022-10-24T04:57:01.701Z,0.00
2022-10-24T04:58:01.671Z,0.00
2022-10-24T04:59:01.644Z,0.00
2022-10-24T05:00:01.718Z,0.00
2022-10-24T05:01:01.684Z,0.00
2022-10-24T05:02:01.669Z,0.00
2022-10-24T05:03:01.623Z,0.00
2022-10-24T05:05:01.579Z,0.00
2022-10-24T05:06:01.563Z,0.00
2022-10-24T05:07:01.557Z,0.00
2022-10-24T05:08:01.573Z,0.00
2022-10-24T05:09:01.535Z,0.00
2022-10-24T05:10:01.522Z,0.00
2022-10-24T05:11:01.502Z,0.00
2022-10-24T05:12:01.495Z,0.00
2022-10-24T05:13:01.489Z,0.00
2022-10-24T05:14:01.493Z,0.00
2022-10-24T05:15:01.461Z,0.00
2022-10-24T05:16:01.462Z,0.00
2022-10-24T05:17:01.444Z,0.00
2022-10-24T05:18:01.455Z,0.00
2022-10-24T05:19:01.452Z,0.00
2022-10-24T05:20:01.416Z,0.00
2022-10-24T05:21:01.382Z,0.00
2022-10-24T05:22:01.388Z,0.00
2022-10-24T05:23:01.373Z,0.00
2022-10-24T05:24:01.354Z,0.00
2022-10-24T05:25:01.375Z,0.00
2022-10-24T05:26:01.345Z,0.00
2022-10-24T05:27:01.322Z,0.00
2022-10-24T05:28:01.320Z,0.00
2022-10-24T05:29:01.339Z,0.00
2022-10-24T05:30:01.287Z,0.00
2022-10-24T05:31:01.286Z,0.00
2022-10-24T05:32:01.259Z,0.00
2022-10-24T05:33:01.242Z,0.00
2022-10-24T05:34:01.248Z,0.00
2022-10-24T05:35:01.231Z,0.00
2022-10-24T05:36:01.277Z,0.00
2022-10-24T05:37:01.199Z,0.00
2022-10-24T05:38:01.192Z,0.00
2022-10-24T05:39:01.180Z,0.00
2022-10-24T05:40:01.169Z,0.00
2022-10-24T05:41:01.158Z,0.00
2022-10-24T05:42:01.162Z,0.00
2022-10-24T05:43:01.128Z,0.00
2022-10-24T05:44:01.133Z,0.00
2022-10-24T05:45:01.108Z,0.00
2022-10-24T05:46:01.098Z,0.00
2022-10-24T05:47:01.109Z,0.00
2022-10-24T05:48:01.069Z,0.00
2022-10-24T05:49:01.069Z,0.00
2022-10-24T05:50:01.049Z,0.00
2022-10-24T05:51:01.041Z,0.00
2022-10-24T05:52:01.030Z,0.00
2022-10-24T05:53:01.043Z,0.00
2022-10-24T05:54:01.064Z,0.00
2022-10-24T05:55:07.725Z,0.00
2022-10-24T05:56:01.970Z,0.00
2022-10-24T05:57:00.970Z,0.00
2022-10-24T05:58:00.991Z,0.00
2022-10-24T05:59:00.943Z,0.00
2022-10-24T06:00:01.008Z,0.00
2022-10-24T06:01:00.954Z,0.00
2022-10-24T06:02:01.000Z,0.00
2022-10-24T06:03:00.902Z,0.00
2022-10-24T06:04:00.912Z,0.00
2022-10-24T06:05:00.892Z,0.00
2022-10-24T06:06:00.871Z,0.00
2022-10-24T06:07:00.863Z,0.00
2022-10-24T06:08:00.844Z,0.00
2022-10-24T06:09:00.836Z,0.00
2022-10-24T06:10:00.845Z,0.00
2022-10-24T06:11:00.952Z,5.62
2022-10-24T06:12:00.997Z,5.62
2022-10-24T06:13:00.914Z,5.62
2022-10-24T06:14:00.765Z,5.62
2022-10-24T06:15:00.764Z,5.62
2022-10-24T06:16:00.775Z,5.62
2022-10-24T06:17:00.737Z,5.62
2022-10-24T06:18:00.727Z,5.62
2022-10-24T06:19:00.737Z,11.25
2022-10-24T06:20:00.722Z,11.25
2022-10-24T06:21:00.751Z,11.25
2022-10-24T06:22:00.676Z,11.25
2022-10-24T06:23:00.671Z,11.25
2022-10-24T06:24:00.656Z,11.25
2022-10-24T06:25:00.646Z,11.25
2022-10-24T06:26:00.633Z,11.25
2022-10-24T06:27:00.663Z,11.25
2022-10-24T06:28:00.708Z,16.88
2022-10-24T06:29:00.606Z,16.88
2022-10-24T06:30:00.582Z,16.88
2022-10-24T06:31:00.594Z,16.88
2022-10-24T06:32:00.557Z,16.88
2022-10-24T06:33:00.578Z,16.88
2022-10-24T06:34:00.566Z,16.88
2022-10-24T06:35:00.528Z,16.88
2022-10-24T06:36:00.518Z,16.88
2022-10-24T06:37:00.499Z,22.50
2022-10-24T06:38:00.493Z,22.50
2022-10-24T06:39:00.521Z,22.50
2022-10-24T06:40:00.470Z,22.50
2022-10-24T06:41:00.473Z,22.50
2022-10-24T06:42:00.448Z,22.50
2022-10-24T06:43:00.441Z,22.50
2022-10-24T06:44:00.413Z,22.50
2022-10-24T06:46:00.405Z,28.12
2022-10-24T06:47:00.391Z,28.12
2022-10-24T06:48:00.376Z,28.12
2022-10-24T06:49:00.361Z,28.12
2022-10-24T06:50:00.379Z,28.12
2022-10-24T06:51:00.365Z,33.75
2022-10-24T06:52:00.345Z,33.75
2022-10-24T06:53:00.334Z,33.75
2022-10-24T06:54:00.359Z,33.75
2022-10-24T06:55:00.303Z,33.75
2022-10-24T06:56:00.382Z,33.75
2022-10-24T06:57:00.284Z,33.75
2022-10-24T06:58:00.265Z,33.75
2022-10-24T06:59:00.239Z,33.75
2022-10-24T07:00:00.235Z,39.38
2022-10-24T07:01:00.314Z,39.38
2022-10-24T07:02:03.247Z,39.38
2022-10-24T07:03:01.201Z,39.38
2022-10-24T07:04:00.186Z,39.38
2022-10-24T07:05:00.166Z,39.38
2022-10-24T07:06:00.166Z,39.38
2022-10-24T07:07:00.154Z,45.00
2022-10-24T07:08:00.176Z,45.00
2022-10-24T07:09:00.142Z,45.00
2022-10-24T07:10:00.122Z,45.00
2022-10-24T07:11:00.189Z,45.00
2022-10-24T07:12:00.095Z,45.00
2022-10-24T07:13:00.107Z,45.00
2022-10-24T07:14:01.671Z,45.00
2022-10-24T07:15:00.076Z,45.00
2022-10-24T07:16:00.068Z,45.00
2022-10-24T07:17:00.038Z,45.00
2022-10-24T07:18:00.018Z,45.00
2022-10-24T07:19:00.050Z,45.00
2022-10-24T07:19:59.990Z,45.00
2022-10-24T07:20:59.984Z,50.62
2022-10-24T07:21:59.968Z,50.62
2022-10-24T07:22:59.962Z,50.62
2022-10-24T07:23:59.977Z,50.62
2022-10-24T07:24:59.944Z,50.62
2022-10-24T07:25:59.950Z,50.62
2022-10-24T07:26:59.915Z,50.62
2022-10-24T07:27:59.902Z,50.62
2022-10-24T07:28:59.919Z,50.62
2022-10-24T07:30:03.105Z,50.62
2022-10-24T07:31:00.870Z,50.62
2022-10-24T07:31:59.851Z,50.62
2022-10-24T07:32:59.835Z,50.62
2022-10-24T07:33:59.831Z,50.62
2022-10-24T07:34:59.860Z,50.62
2022-10-24T07:35:59.852Z,50.62
2022-10-24T07:36:59.784Z,50.62
2022-10-24T07:37:59.776Z,50.62
2022-10-24T07:38:59.762Z,56.25
2022-10-24T07:39:59.762Z,56.25
2022-10-24T07:40:59.811Z,56.25
2022-10-24T07:41:59.734Z,56.25
2022-10-24T07:42:59.716Z,61.88
2022-10-24T07:43:59.705Z,61.88
2022-10-24T07:44:59.704Z,61.88
2022-10-24T07:46:59.708Z,61.88
2022-10-24T07:47:59.667Z,61.88
2022-10-24T07:48:59.653Z,61.88
2022-10-24T07:49:59.633Z,67.50
2022-10-24T07:50:59.615Z,67.50
2022-10-24T07:51:59.606Z,67.50
2022-10-24T07:52:59.616Z,67.50
2022-10-24T07:53:59.584Z,67.50
2022-10-24T07:54:59.571Z,67.50
2022-10-24T07:55:59.566Z,67.50
2022-10-24T07:56:59.570Z,67.50
2022-10-24T07:57:59.587Z,67.50
2022-10-24T07:58:59.911Z,67.50
2022-10-24T07:59:59.543Z,67.50
2022-10-24T08:00:59.517Z,67.50
2022-10-24T08:01:59.506Z,67.50
2022-10-24T08:02:59.503Z,67.50
2022-10-24T08:03:59.509Z,73.12
2022-10-24T08:04:59.488Z,73.12
2022-10-24T08:05:59.441Z,73.12
2022-10-24T08:06:59.441Z,73.12
2022-10-24T08:08:11.940Z,73.12
2022-10-24T08:09:00.438Z,73.12
2022-10-24T08:09:59.409Z,73.12
2022-10-24T08:11:02.167Z,78.75
2022-10-24T08:11:59.378Z,78.75
2022-10-24T08:12:59.359Z,78.75
2022-10-24T08:13:59.371Z,78.75
2022-10-24T08:14:59.350Z,78.75
2022-10-24T08:15:59.354Z,78.75
2022-10-24T08:16:59.330Z,78.75
2022-10-24T08:17:59.310Z,78.75
2022-10-24T08:18:59.299Z,78.75
2022-10-24T08:19:59.273Z,78.75
2022-10-24T08:20:59.321Z,78.75
2022-10-24T08:21:59.256Z,78.75
2022-10-24T08:22:59.251Z,78.75
2022-10-24T08:23:59.222Z,78.75
2022-10-24T08:24:59.238Z,78.75
2022-10-24T08:25:59.213Z,84.38
2022-10-24T08:26:59.253Z,84.38
2022-10-24T08:27:59.692Z,84.38
2022-10-24T08:28:59.176Z,84.38
2022-10-24T08:29:59.144Z,84.38
2022-10-24T08:30:59.133Z,84.38
2022-10-24T08:31:59.123Z,84.38
2022-10-24T08:32:59.134Z,84.38
2022-10-24T08:33:59.114Z,84.38
2022-10-24T08:34:59.095Z,84.38
2022-10-24T08:35:59.082Z,84.38
2022-10-24T08:36:59.066Z,84.38
2022-10-24T08:37:59.056Z,84.38
2022-10-24T08:38:59.099Z,84.38
2022-10-24T08:39:59.045Z,84.38
2022-10-24T08:40:59.020Z,84.38
2022-10-24T08:42:00.316Z,84.38
2022-10-24T08:42:59.006Z,84.38
2022-10-24T08:43:59.007Z,84.38
2022-10-24T08:44:59.016Z,84.38
2022-10-24T08:45:58.968Z,84.38
2022-10-24T08:46:58.958Z,90.00
2022-10-24T08:47:58.937Z,90.00
2022-10-24T08:48:58.927Z,90.00
2022-10-24T08:49:58.917Z,90.00
2022-10-24T08:50:58.930Z,95.62
2022-10-24T08:51:58.900Z,95.62
2022-10-24T08:52:58.878Z,95.62
2022-10-24T08:53:58.878Z,101.25
2022-10-24T08:55:02.051Z,101.25
2022-10-24T08:55:59.910Z,106.88
2022-10-24T08:56:58.851Z,106.88
2022-10-24T08:57:58.833Z,106.88
2022-10-24T08:58:58.830Z,106.88
2022-10-24T08:59:58.810Z,106.88
2022-10-24T09:00:58.851Z,106.88
2022-10-24T09:02:01.962Z,106.88
2022-10-24T09:02:59.878Z,106.88
2022-10-24T09:03:58.804Z,112.50
2022-10-24T09:04:58.781Z,112.50
2022-10-24T09:05:58.753Z,112.50
2022-10-24T09:06:58.736Z,118.12
2022-10-24T09:07:58.770Z,118.12
2022-10-24T09:08:58.717Z,118.12
2022-10-24T09:09:58.734Z,123.75
2022-10-24T09:10:58.681Z,123.75
2022-10-24T09:11:58.694Z,129.38
2022-10-24T09:12:58.693Z,129.38
2022-10-24T09:13:58.692Z,135.00
2022-10-24T09:14:58.671Z,135.00
2022-10-24T09:15:58.667Z,140.62
2022-10-24T09:16:58.628Z,140.62
2022-10-24T09:17:58.620Z,140.62
2022-10-24T09:18:58.624Z,140.62
2022-10-24T09:19:58.621Z,146.25
2022-10-24T09:20:58.598Z,140.62
2022-10-24T09:21:58.546Z,146.25
2022-10-24T09:22:58.555Z,146.25
2022-10-24T09:23:58.548Z,151.88
2022-10-24T09:24:58.566Z,157.50
2022-10-24T09:25:58.515Z,174.38
2022-10-24T09:26:58.538Z,163.12
2022-10-24T09:27:58.497Z,174.38
2022-10-24T09:28:58.487Z,191.25
2022-10-24T09:29:58.529Z,202.50
2022-10-24T09:30:58.519Z,180.00
2022-10-24T09:31:58.507Z,174.38
2022-10-24T09:32:58.468Z,168.75
2022-10-24T09:33:58.440Z,174.38
2022-10-24T09:34:58.460Z,180.00
2022-10-24T09:35:58.417Z,174.38
2022-10-24T09:36:58.391Z,174.38
2022-10-24T09:37:58.368Z,174.38
2022-10-24T09:38:58.420Z,174.38
2022-10-24T09:39:58.339Z,168.75
2022-10-24T09:40:58.400Z,168.75
2022-10-24T09:41:58.326Z,168.75
2022-10-24T09:42:58.320Z,163.12
2022-10-24T09:43:58.378Z,157.50
2022-10-24T09:44:58.336Z,163.12
2022-10-24T09:45:58.304Z,180.00
2022-10-24T09:46:58.299Z,180.00
2022-10-24T09:47:58.252Z,185.62
2022-10-24T09:48:58.250Z,180.00
2022-10-24T09:49:58.250Z,191.25
2022-10-24T09:50:58.240Z,180.00
2022-10-24T09:51:58.234Z,180.00
2022-10-24T09:52:58.347Z,157.50
2022-10-24T09:53:58.202Z,146.25
2022-10-24T09:54:58.242Z,140.62
2022-10-24T09:55:58.161Z,151.88
2022-10-24T09:56:58.173Z,163.12
2022-10-24T09:57:58.140Z,129.38
2022-10-24T09:58:58.146Z,135.00
2022-10-24T09:59:58.133Z,140.62
2022-10-24T10:00:58.139Z,140.62
2022-10-24T10:01:58.192Z,163.12
2022-10-24T10:02:58.077Z,140.62
2022-10-24T10:03:58.117Z,174.38
2022-10-24T10:04:58.105Z,140.62
2022-10-24T10:05:58.058Z,146.25
2022-10-24T10:06:58.141Z,129.38
2022-10-24T10:07:58.045Z,135.00
2022-10-24T10:08:58.016Z,146.25
2022-10-24T10:09:58.080Z,157.50
2022-10-24T10:10:58.086Z,157.50
2022-10-24T10:12:02.316Z,157.50
2022-10-24T10:12:58.956Z,168.75
2022-10-24T10:13:57.976Z,185.62
2022-10-24T10:14:57.959Z,202.50
2022-10-24T10:15:57.958Z,219.38
2022-10-24T10:16:57.961Z,202.50
2022-10-24T10:17:57.918Z,185.62
2022-10-24T10:18:57.908Z,208.12
2022-10-24T10:19:57.873Z,219.38
2022-10-24T10:20:57.861Z,230.62
2022-10-24T10:21:57.879Z,247.50
2022-10-24T10:22:57.831Z,241.88
2022-10-24T10:23:57.828Z,236.25
2022-10-24T10:24:57.810Z,174.38
2022-10-24T10:25:57.878Z,174.38
2022-10-24T10:26:57.822Z,151.88
2022-10-24T10:28:00.999Z,180.00
2022-10-24T10:28:58.761Z,185.62
2022-10-24T10:29:57.761Z,157.50
2022-10-24T10:30:57.751Z,151.88
2022-10-24T10:31:57.838Z,157.50
2022-10-24T10:32:57.752Z,157.50
2022-10-24T10:33:57.736Z,191.25
2022-10-24T10:34:57.710Z,208.12
2022-10-24T10:35:57.706Z,230.62
2022-10-24T10:36:57.662Z,230.62
2022-10-24T10:37:57.684Z,225.00
2022-10-24T10:38:57.663Z,225.00
2022-10-24T10:39:57.644Z,219.38
2022-10-24T10:40:57.640Z,225.00
2022-10-24T10:41:57.616Z,225.00
2022-10-24T10:42:57.599Z,225.00
2022-10-24T10:43:57.655Z,202.50
2022-10-24T10:44:57.574Z,219.38
2022-10-24T10:45:57.565Z,219.38
2022-10-24T10:46:57.554Z,208.12
2022-10-24T10:47:57.547Z,208.12
2022-10-24T10:48:57.521Z,208.12
2022-10-24T10:49:57.552Z,202.50
2022-10-24T10:50:57.525Z,185.62
2022-10-24T10:51:57.490Z,191.25
2022-10-24T10:52:57.488Z,219.38
2022-10-24T10:53:57.480Z,219.38
2022-10-24T10:54:57.467Z,219.38
2022-10-24T10:55:57.467Z,225.00
2022-10-24T10:56:57.449Z,225.00
2022-10-24T10:57:57.429Z,225.00
2022-10-24T10:58:57.420Z,219.38
2022-10-24T10:59:57.397Z,202.50
2022-10-24T11:00:57.446Z,219.38
2022-10-24T11:01:57.558Z,213.75
2022-10-24T11:02:57.547Z,225.00
2022-10-24T11:03:57.350Z,225.00
2022-10-24T11:04:57.352Z,225.00
2022-10-24T11:05:57.360Z,219.38
2022-10-24T11:06:57.404Z,219.38
2022-10-24T11:07:57.330Z,213.75
2022-10-24T11:08:57.299Z,208.12
2022-10-24T11:09:57.301Z,208.12
2022-10-24T11:10:57.272Z,208.12
2022-10-24T11:11:57.294Z,213.75
2022-10-24T11:12:57.289Z,202.50
2022-10-24T11:13:57.319Z,196.88
2022-10-24T11:14:57.271Z,185.62
2022-10-24T11:15:57.238Z,191.25
2022-10-24T11:16:57.213Z,191.25
2022-10-24T11:17:57.192Z,180.00
2022-10-24T11:18:57.212Z,185.62
2022-10-24T11:19:57.181Z,174.38
2022-10-24T11:20:57.154Z,174.38
2022-10-24T11:21:57.199Z,174.38
2022-10-24T11:22:57.204Z,185.62
2022-10-24T11:23:57.122Z,185.62
2022-10-24T11:24:57.135Z,191.25
2022-10-24T11:25:57.104Z,202.50
2022-10-24T11:26:57.106Z,202.50
2022-10-24T11:27:57.077Z,191.25
2022-10-24T11:28:57.074Z,140.62
2022-10-24T11:29:57.097Z,157.50
2022-10-24T11:30:57.049Z,151.88
2022-10-24T11:31:57.080Z,112.50
2022-10-24T11:32:57.048Z,123.75
2022-10-24T11:33:57.009Z,112.50
2022-10-24T11:34:56.996Z,101.25
2022-10-24T11:35:57.037Z,101.25
2022-10-24T11:36:56.990Z,101.25
2022-10-24T11:37:56.968Z,101.25
2022-10-24T11:38:57.037Z,101.25
2022-10-24T11:39:56.959Z,106.88
2022-10-24T11:40:58.823Z,106.88
2022-10-24T11:41:56.960Z,112.50
2022-10-24T11:42:56.980Z,118.12
2022-10-24T11:43:56.899Z,118.12
2022-10-24T11:44:56.913Z,118.12
2022-10-24T11:45:57.912Z,118.12
2022-10-24T11:46:56.871Z,118.12
2022-10-24T11:47:57.015Z,129.38
2022-10-24T11:48:56.841Z,135.00
2022-10-24T11:49:57.056Z,129.38
2022-10-24T11:50:56.967Z,123.75
2022-10-24T11:51:56.920Z,129.38
2022-10-24T11:52:56.852Z,123.75
2022-10-24T11:53:56.803Z,135.00
2022-10-24T11:54:56.809Z,118.12
2022-10-24T11:55:56.754Z,112.50
2022-10-24T11:56:56.756Z,106.88
2022-10-24T11:57:56.743Z,129.38
2022-10-24T11:58:56.880Z,118.12
2022-10-24T11:59:56.717Z,112.50
2022-10-24T12:00:56.704Z,157.50
2022-10-24T12:01:56.704Z,180.00
2022-10-24T12:02:56.729Z,180.00
2022-10-24T12:03:56.664Z,185.62
2022-10-24T12:04:56.687Z,185.62
2022-10-24T12:05:56.658Z,180.00
2022-10-24T12:06:56.643Z,168.75
2022-10-24T12:07:56.634Z,168.75
2022-10-24T12:08:56.606Z,174.38
2022-10-24T12:09:56.633Z,174.38
2022-10-24T12:10:56.596Z,180.00
2022-10-24T12:11:56.579Z,168.75
2022-10-24T12:12:56.855Z,112.50
2022-10-24T12:13:56.570Z,129.38
2022-10-24T12:14:56.567Z,174.38
2022-10-24T12:15:56.549Z,180.00
2022-10-24T12:16:56.519Z,185.62
2022-10-24T12:17:56.508Z,191.25
2022-10-24T12:18:56.498Z,180.00
2022-10-24T12:19:56.481Z,112.50
2022-10-24T12:20:56.479Z,123.75
2022-10-24T12:21:56.510Z,135.00
2022-10-24T12:22:56.449Z,185.62
2022-10-24T12:23:56.430Z,185.62
2022-10-24T12:24:56.430Z,180.00
2022-10-24T12:25:56.411Z,174.38
2022-10-24T12:26:56.401Z,168.75
2022-10-24T12:27:56.414Z,168.75
2022-10-24T12:28:56.386Z,163.12
2022-10-24T12:29:56.378Z,157.50
2022-10-24T12:30:56.354Z,163.12
2022-10-24T12:31:56.342Z,163.12
2022-10-24T12:32:56.332Z,168.75
2022-10-24T12:33:56.352Z,157.50
2022-10-24T12:35:12.304Z,157.50
2022-10-24T12:35:57.420Z,129.38
2022-10-24T12:36:56.275Z,157.50
2022-10-24T12:37:56.267Z,163.12
2022-10-24T12:38:56.269Z,163.12
2022-10-24T12:39:58.520Z,157.50
2022-10-24T12:40:56.235Z,151.88
2022-10-24T12:41:56.331Z,135.00
2022-10-24T12:42:56.324Z,146.25
2022-10-24T12:43:56.251Z,163.12
2022-10-24T12:44:56.297Z,168.75
2022-10-24T12:45:56.276Z,174.38
2022-10-24T12:46:56.296Z,174.38
2022-10-24T12:48:56.192Z,180.00
2022-10-24T12:49:56.144Z,180.00
2022-10-24T12:50:56.264Z,185.62
2022-10-24T12:51:56.310Z,180.00
2022-10-24T12:52:56.467Z,180.00
2022-10-24T12:53:56.180Z,129.38
2022-10-24T12:54:56.148Z,168.75
2022-10-24T12:55:56.176Z,185.62
2022-10-24T12:56:56.112Z,140.62
2022-10-24T12:57:56.318Z,168.75
2022-10-24T12:58:56.165Z,180.00
2022-10-24T12:59:56.250Z,191.25
2022-10-24T13:00:56.174Z,185.62
2022-10-24T13:01:59.946Z,185.62
2022-10-24T13:02:57.283Z,180.00
2022-10-24T13:03:56.145Z,180.00